Terminal Aerodrome Forecast
Issued by NWS

Home | Current Version | Previous Version | Text Only | Print | Product List | Glossary On
Versions: 1 2 3 4 5 6 7 8 9 10 11 12 13 14 15 16 17 18 19 20 21 22 23 24 25
000
FTPA31 PHFO 041700
TAFKOA
TAF
PHKO 041730Z 0418/0518 14005KT P6SM SCT050
     FM042000 24010KT P6SM SCT030 BKN060
     FM050200 19010KT P6SM SCT030 BKN060
     FM050800 11007KT P6SM SCT025 BKN060=

USA.gov is the U.S. government's official web portal to all federal, state and local government web resources and services.